Time;durP1;ratioP1;P1;durP2;ratioP2;P2;SDS_P1;SDS_P2;PMS_P1;PMS_P2;Temp;Humidity;BMP_temperature;BMP_pressure;BME280_temperature;BME280_humidity;BME280_pressure;Samples;Min_cycle;Max_cycle;Signal;HPM_P1;HPM_P2
2022/02/24 00:02:21;;;;;;;6.47;3.97;;;3.10;76.10;;;;;;4965110;28;20593;-68
2022/02/24 00:04:47;;;;;;;7.15;4.03;;;3.10;76.20;;;;;;4960726;28;20038;-67
2022/02/24 00:07:13;;;;;;;10.55;4.32;;;3.00;76.00;;;;;;4963423;28;20113;-68
2022/02/24 00:09:39;;;;;;;4.25;3.47;;;3.00;76.30;;;;;;4966157;28;20104;-67
2022/02/24 00:12:06;;;;;;;5.75;3.38;;;3.00;76.50;;;;;;4959644;28;20039;-67
2022/02/24 00:14:32;;;;;;;5.63;3.75;;;3.00;76.60;;;;;;4963794;28;20039;-68
2022/02/24 00:16:58;;;;;;;7.10;3.90;;;2.90;76.60;;;;;;4961811;28;20415;-67
2022/02/24 00:19:23;;;;;;;6.93;3.80;;;2.90;76.80;;;;;;4965125;28;20037;-68
2022/02/24 00:21:49;;;;;;;7.38;3.83;;;2.90;76.70;;;;;;4960736;28;20051;-68
2022/02/24 00:24:14;;;;;;;11.40;4.13;;;2.90;76.60;;;;;;4961139;28;20074;-66
2022/02/24 00:26:40;;;;;;;5.70;3.50;;;3.00;76.60;;;;;;4959680;28;20035;-67
2022/02/24 00:29:06;;;;;;;7.95;3.88;;;2.90;76.60;;;;;;4964122;28;20054;-68
2022/02/24 00:31:31;;;;;;;6.20;3.58;;;2.90;76.70;;;;;;4960862;28;20544;-67
2022/02/24 00:33:59;;;;;;;6.43;3.28;;;2.90;76.70;;;;;;4962275;28;20520;-67
2022/02/24 00:36:25;;;;;;;5.88;3.40;;;2.90;76.70;;;;;;4960243;28;20035;-67
2022/02/24 00:38:50;;;;;;;5.43;3.05;;;2.90;76.70;;;;;;4964213;28;20046;-68
2022/02/24 00:41:16;;;;;;;5.43;3.50;;;3.00;76.60;;;;;;4960285;28;20031;-67
2022/02/24 00:43:42;;;;;;;4.95;3.42;;;3.00;76.60;;;;;;4960903;28;20130;-67
2022/02/24 00:46:08;;;;;;;7.25;3.60;;;3.00;76.60;;;;;;4961113;28;20042;-67
2022/02/24 00:48:34;;;;;;;6.10;3.63;;;3.00;76.60;;;;;;4957875;28;20039;-68
2022/02/24 00:51:00;;;;;;;5.35;3.80;;;3.00;76.40;;;;;;4960998;28;20031;-68
2022/02/24 00:53:25;;;;;;;4.70;3.15;;;3.00;76.60;;;;;;4960421;28;20034;-67
2022/02/24 00:55:51;;;;;;;6.25;3.70;;;3.00;76.60;;;;;;4961726;28;20038;-66
2022/02/24 00:58:16;;;;;;;6.05;3.60;;;3.00;76.60;;;;;;4964239;28;20105;-68
2022/02/24 01:00:42;;;;;;;8.00;4.15;;;3.00;76.60;;;;;;4964982;28;20046;-67
2022/02/24 01:03:08;;;;;;;6.05;3.50;;;3.00;76.60;;;;;;4959653;28;20035;-68
2022/02/24 01:05:34;;;;;;;6.25;4.00;;;3.00;76.70;;;;;;4961343;28;20505;-69
2022/02/24 01:08:00;;;;;;;6.00;3.55;;;3.00;76.70;;;;;;4960538;28;20613;-65
2022/02/24 01:10:26;;;;;;;7.32;4.10;;;3.00;76.60;;;;;;4963933;28;20035;-67
2022/02/24 01:12:51;;;;;;;6.10;4.15;;;3.00;76.50;;;;;;4962032;28;20054;-67
2022/02/24 01:15:17;;;;;;;5.13;3.55;;;3.00;76.40;;;;;;4963050;28;20035;-67
2022/02/24 01:17:43;;;;;;;4.65;3.45;;;3.00;76.40;;;;;;4960353;28;20958;-68
2022/02/24 01:20:10;;;;;;;7.03;3.75;;;3.00;76.60;;;;;;4963051;28;20046;-68
2022/02/24 01:22:36;;;;;;;6.07;3.90;;;3.10;77.00;;;;;;4962449;28;20031;-67
2022/02/24 01:25:03;;;;;;;7.03;3.95;;;3.10;77.10;;;;;;4966404;28;20085;-67
2022/02/24 01:27:29;;;;;;;5.55;3.55;;;3.10;77.10;;;;;;4965320;28;20118;-68
2022/02/24 01:29:55;;;;;;;5.22;3.42;;;3.00;76.90;;;;;;4962074;28;20040;-67
2022/02/24 01:32:20;;;;;;;5.20;3.80;;;3.10;77.00;;;;;;4961596;28;20046;-67
2022/02/24 01:34:46;;;;;;;5.68;3.25;;;3.10;76.90;;;;;;4961728;28;20568;-67
2022/02/24 01:37:12;;;;;;;4.45;3.10;;;3.10;76.90;;;;;;4962194;28;20030;-66
2022/02/24 01:39:37;;;;;;;4.68;3.42;;;3.10;76.90;;;;;;4961868;28;20053;-67
2022/02/24 01:42:03;;;;;;;6.07;3.63;;;3.10;76.90;;;;;;4963062;28;20035;-67
2022/02/24 01:44:40;;;;;;;6.25;3.55;;;3.10;76.90;;;;;;4961469;28;20041;-68
2022/02/24 01:47:06;;;;;;;7.75;4.10;;;3.10;77.30;;;;;;4961069;28;20082;-67
2022/02/24 01:49:32;;;;;;;7.72;4.70;;;3.00;76.90;;;;;;4963237;28;20606;-68
2022/02/24 01:51:58;;;;;;;5.90;4.22;;;3.10;76.90;;;;;;4963164;28;20035;-68
2022/02/24 01:54:24;;;;;;;5.90;4.40;;;3.10;77.10;;;;;;4959822;28;20502;-67
2022/02/24 01:56:50;;;;;;;7.53;4.45;;;3.10;77.20;;;;;;4959103;28;20050;-67
2022/02/24 01:59:16;;;;;;;6.18;4.55;;;3.00;77.20;;;;;;4962810;28;20038;-68
2022/02/24 02:01:42;;;;;;;7.65;4.30;;;3.00;77.10;;;;;;4957017;28;20050;-67
2022/02/24 02:04:08;;;;;;;6.05;4.32;;;3.00;77.10;;;;;;4963063;28;20051;-67
2022/02/24 02:06:34;;;;;;;7.07;4.03;;;2.90;77.10;;;;;;4962394;28;20042;-68
2022/02/24 02:09:00;;;;;;;8.55;5.03;;;3.00;77.50;;;;;;4957584;28;20081;-67
2022/02/24 02:11:25;;;;;;;8.90;4.63;;;2.90;77.40;;;;;;4960021;28;20042;-67
2022/02/24 02:13:51;;;;;;;7.72;4.90;;;2.90;77.50;;;;;;4961932;28;20026;-68
2022/02/24 02:16:17;;;;;;;6.50;4.85;;;2.90;77.60;;;;;;4959436;28;20035;-68
2022/02/24 02:18:42;;;;;;;7.65;4.55;;;2.90;77.70;;;;;;4960435;28;20599;-67
2022/02/24 02:21:08;;;;;;;7.40;4.43;;;2.90;77.40;;;;;;4959108;28;20038;-66
2022/02/24 02:23:34;;;;;;;6.72;4.38;;;2.80;77.40;;;;;;4960247;28;20085;-68
2022/02/24 02:26:00;;;;;;;7.00;3.97;;;2.80;77.30;;;;;;4961783;28;20058;-68
2022/02/24 02:28:25;;;;;;;5.78;4.07;;;2.80;77.10;;;;;;4962030;28;20113;-68
2022/02/24 02:30:51;;;;;;;6.22;4.15;;;2.80;77.00;;;;;;4957365;28;20505;-67
2022/02/24 02:33:17;;;;;;;4.95;3.80;;;2.80;76.90;;;;;;4962512;28;20170;-66
2022/02/24 02:35:42;;;;;;;6.47;3.97;;;2.70;76.90;;;;;;4959661;28;20516;-65
2022/02/24 02:38:08;;;;;;;8.15;4.18;;;2.70;76.90;;;;;;4959956;28;20054;-67
2022/02/24 02:40:37;;;;;;;6.30;3.85;;;2.70;77.10;;;;;;4960829;28;20043;-68
2022/02/24 02:43:05;;;;;;;8.20;4.20;;;2.70;77.10;;;;;;4961936;28;20432;-67
2022/02/24 02:45:31;;;;;;;5.18;3.88;;;2.70;76.90;;;;;;4961402;28;20073;-68
2022/02/24 02:47:59;;;;;;;5.15;3.88;;;2.70;76.80;;;;;;4960793;28;20121;-68
2022/02/24 02:50:25;;;;;;;5.10;3.50;;;2.70;76.70;;;;;;4960451;28;20038;-67
2022/02/24 02:52:52;;;;;;;6.72;4.03;;;2.60;76.70;;;;;;4959534;28;20060;-67
2022/02/24 02:55:17;;;;;;;5.88;3.63;;;2.60;76.80;;;;;;4960778;28;20498;-67
2022/02/24 02:57:43;;;;;;;6.85;3.92;;;2.60;76.90;;;;;;4959190;28;20089;-67
2022/02/24 03:00:11;;;;;;;6.95;4.05;;;2.60;76.90;;;;;;4960840;28;20469;-68
2022/02/24 03:02:37;;;;;;;6.85;3.63;;;2.70;76.70;;;;;;4957918;28;20038;-67
2022/02/24 03:05:03;;;;;;;8.88;4.65;;;2.70;76.70;;;;;;4957740;28;20179;-67
2022/02/24 03:07:29;;;;;;;6.28;4.35;;;2.70;76.70;;;;;;4958233;28;20031;-67
2022/02/24 03:09:55;;;;;;;7.03;4.47;;;2.70;76.80;;;;;;4957274;28;20039;-67
2022/02/24 03:12:21;;;;;;;6.68;4.30;;;2.70;77.00;;;;;;4958408;28;20038;-67
2022/02/24 03:14:47;;;;;;;6.35;4.72;;;2.80;77.00;;;;;;4961437;28;20039;-67
2022/02/24 03:17:14;;;;;;;7.65;4.90;;;2.70;76.90;;;;;;4958798;28;20093;-67
2022/02/24 03:19:40;;;;;;;5.90;4.72;;;2.80;76.90;;;;;;4958885;28;20413;-67
2022/02/24 03:22:11;;;;;;;8.10;5.38;;;2.80;76.90;;;;;;4959372;28;20577;-67
2022/02/24 03:24:37;;;;;;;7.30;5.03;;;2.80;76.80;;;;;;4958569;28;20035;-67
2022/02/24 03:27:03;;;;;;;6.75;5.40;;;2.80;76.70;;;;;;4959135;28;20031;-67
2022/02/24 03:29:29;;;;;;;7.75;5.55;;;2.70;76.80;;;;;;4962187;28;20049;-67
2022/02/24 03:31:55;;;;;;;6.28;5.10;;;2.70;77.20;;;;;;4960580;28;20043;-66
2022/02/24 03:34:21;;;;;;;7.53;5.25;;;2.70;77.20;;;;;;4958832;28;20378;-67
2022/02/24 03:36:47;;;;;;;6.25;4.93;;;2.70;77.10;;;;;;4957770;28;20130;-67
2022/02/24 03:39:13;;;;;;;6.38;4.18;;;2.70;77.00;;;;;;4959752;28;20070;-67
2022/02/24 03:41:38;;;;;;;5.82;4.00;;;2.70;76.90;;;;;;4959303;28;20038;-67
2022/02/24 03:44:04;;;;;;;9.95;4.30;;;2.70;76.90;;;;;;4958030;28;20506;-67
2022/02/24 03:46:30;;;;;;;8.63;4.53;;;2.70;76.70;;;;;;4957435;28;20066;-67
2022/02/24 03:48:56;;;;;;;6.30;4.20;;;2.60;76.50;;;;;;4957519;28;20334;-68
2022/02/24 03:51:22;;;;;;;6.50;3.88;;;2.60;76.40;;;;;;4960066;28;20083;-67
2022/02/24 03:53:47;;;;;;;6.38;4.25;;;2.60;76.30;;;;;;4961308;28;20093;-66
2022/02/24 03:56:13;;;;;;;9.25;5.40;;;2.50;76.20;;;;;;4958925;28;20047;-67
2022/02/24 03:58:39;;;;;;;8.45;4.43;;;2.50;76.00;;;;;;4955103;28;20098;-67
2022/02/24 04:01:04;;;;;;;8.65;5.10;;;2.50;76.10;;;;;;4958132;28;20439;-67
2022/02/24 04:03:30;;;;;;;8.52;5.15;;;2.50;76.30;;;;;;4958241;28;20027;-67
2022/02/24 04:05:56;;;;;;;6.32;4.47;;;2.50;76.30;;;;;;4957367;28;20038;-66
2022/02/24 04:08:21;;;;;;;10.02;4.50;;;2.40;76.10;;;;;;4958414;28;20100;-67
2022/02/24 04:10:48;;;;;;;9.02;4.50;;;2.40;76.10;;;;;;4957853;28;20050;-66
2022/02/24 04:13:13;;;;;;;9.65;5.03;;;2.40;76.10;;;;;;4960312;28;20039;-67
2022/02/24 04:15:39;;;;;;;8.13;4.45;;;2.30;76.10;;;;;;4960144;28;20031;-66
2022/02/24 04:18:05;;;;;;;6.10;4.18;;;2.30;76.10;;;;;;4975022;28;20047;-67
2022/02/24 04:20:31;;;;;;;6.07;4.10;;;2.30;76.20;;;;;;4956815;28;20031;-65
2022/02/24 04:22:58;;;;;;;9.73;4.72;;;2.20;76.10;;;;;;4959401;28;20130;-67
2022/02/24 04:25:24;;;;;;;9.05;4.95;;;2.20;76.20;;;;;;4957499;28;20070;-65
2022/02/24 04:27:52;;;;;;;7.40;4.63;;;2.20;76.20;;;;;;4956745;28;20027;-67
2022/02/24 04:30:20;;;;;;;7.63;4.70;;;2.20;76.40;;;;;;4960255;28;20038;-67
2022/02/24 04:32:46;;;;;;;7.72;5.13;;;2.20;76.40;;;;;;4954913;28;22214;-66
2022/02/24 04:35:12;;;;;;;6.95;4.50;;;2.20;76.40;;;;;;4963629;28;20114;-67
2022/02/24 04:37:38;;;;;;;6.63;4.55;;;2.20;76.40;;;;;;4957243;28;20047;-66
2022/02/24 04:40:07;;;;;;;10.27;4.80;;;2.10;76.40;;;;;;4963056;28;20070;-66
2022/02/24 04:42:32;;;;;;;8.30;4.93;;;2.10;76.60;;;;;;4959907;28;20031;-67
2022/02/24 04:44:58;;;;;;;6.28;4.82;;;2.10;76.50;;;;;;4961976;28;20290;-66
2022/02/24 04:47:25;;;;;;;6.95;4.85;;;2.10;76.40;;;;;;4962298;28;20660;-66
2022/02/24 04:49:51;;;;;;;7.18;5.00;;;2.10;76.40;;;;;;4958614;28;20046;-67
2022/02/24 04:52:17;;;;;;;8.38;5.05;;;2.10;76.50;;;;;;4957876;28;20565;-67
2022/02/24 04:54:43;;;;;;;5.93;4.60;;;2.10;76.60;;;;;;4961488;28;20129;-67
2022/02/24 04:57:08;;;;;;;5.88;4.70;;;2.10;76.60;;;;;;4956458;28;20039;-66
2022/02/24 04:59:34;;;;;;;6.63;4.40;;;2.10;76.60;;;;;;4957072;28;21890;-67
2022/02/24 05:02:00;;;;;;;6.18;4.38;;;2.10;76.70;;;;;;4962813;28;20043;-67
2022/02/24 05:04:25;;;;;;;7.47;5.03;;;2.10;76.70;;;;;;4960058;28;20034;-67
2022/02/24 05:06:51;;;;;;;9.93;5.40;;;2.10;76.60;;;;;;4959006;28;20498;-65
2022/02/24 05:09:16;;;;;;;6.35;5.60;;;2.00;76.50;;;;;;4961416;28;20034;-67
2022/02/24 05:11:42;;;;;;;6.20;5.18;;;2.10;76.60;;;;;;4958083;28;20043;-67
2022/02/24 05:14:08;;;;;;;7.00;5.28;;;2.10;76.60;;;;;;4964199;28;20042;-67
2022/02/24 05:16:33;;;;;;;10.68;6.90;;;2.00;76.70;;;;;;4962872;28;20541;-67
2022/02/24 05:18:59;;;;;;;10.30;6.45;;;2.00;76.70;;;;;;4957591;28;20034;-67
2022/02/24 05:21:25;;;;;;;12.77;7.10;;;2.00;76.70;;;;;;4962119;28;20077;-66
2022/02/24 05:23:51;;;;;;;19.67;8.98;;;2.00;76.60;;;;;;4960618;28;20066;-66
2022/02/24 05:26:17;;;;;;;24.25;10.95;;;2.00;76.60;;;;;;4959584;28;20130;-67
2022/02/24 05:28:43;;;;;;;25.05;10.82;;;2.00;76.70;;;;;;4959961;28;20035;-67
2022/02/24 05:31:08;;;;;;;29.48;12.13;;;2.00;76.70;;;;;;4961553;28;20090;-66
2022/02/24 05:33:34;;;;;;;24.27;11.10;;;2.00;76.80;;;;;;4963453;28;21707;-67
2022/02/24 05:36:01;;;;;;;26.27;11.85;;;2.00;76.70;;;;;;4964432;28;20150;-65
2022/02/24 05:38:27;;;;;;;24.27;10.60;;;2.00;76.80;;;;;;4959899;28;20050;-65
2022/02/24 05:40:52;;;;;;;25.85;9.43;;;2.00;76.90;;;;;;4963551;28;20498;-66
2022/02/24 05:43:18;;;;;;;38.58;14.13;;;2.00;76.80;;;;;;4962666;28;20137;-67
2022/02/24 05:45:44;;;;;;;31.63;12.18;;;2.00;76.90;;;;;;4962276;28;20537;-67
2022/02/24 05:48:13;;;;;;;27.20;11.98;;;2.00;76.80;;;;;;4963002;28;20506;-66
2022/02/24 05:50:39;;;;;;;50.92;16.52;;;2.00;76.70;;;;;;4961911;28;20066;-66
2022/02/24 05:53:06;;;;;;;77.05;23.38;;;2.00;76.70;;;;;;4961162;28;20149;-67
2022/02/24 05:55:36;;;;;;;73.65;23.88;;;2.00;76.60;;;;;;4961243;28;20031;-67
2022/02/24 05:58:02;;;;;;;65.22;21.80;;;1.90;76.70;;;;;;4959733;28;20031;-66
2022/02/24 06:00:28;;;;;;;90.05;27.42;;;1.90;76.60;;;;;;4963574;28;20130;-67
2022/02/24 06:02:54;;;;;;;92.78;30.08;;;1.90;76.60;;;;;;4961608;28;20125;-67
2022/02/24 06:05:20;;;;;;;142.07;45.72;;;1.90;76.60;;;;;;4961228;28;20406;-65
2022/02/24 06:07:46;;;;;;;168.23;50.85;;;1.90;76.60;;;;;;4959550;28;20584;-66
2022/02/24 06:10:12;;;;;;;149.05;48.55;;;1.90;76.60;;;;;;4963663;28;20047;-66
2022/02/24 06:12:39;;;;;;;150.13;48.35;;;1.80;76.70;;;;;;4957993;28;20237;-66
2022/02/24 06:15:06;;;;;;;107.30;36.92;;;1.80;76.90;;;;;;4962945;28;20035;-66
2022/02/24 06:17:32;;;;;;;96.90;34.58;;;1.80;76.90;;;;;;4961823;28;20050;-67
2022/02/24 06:19:58;;;;;;;94.10;34.38;;;1.80;77.10;;;;;;4964756;28;20031;-67
2022/02/24 06:22:24;;;;;;;95.22;33.53;;;1.80;77.30;;;;;;4962051;28;20023;-67
2022/02/24 06:24:51;;;;;;;91.88;32.67;;;1.80;77.10;;;;;;4961917;28;20039;-67
2022/02/24 06:27:18;;;;;;;72.13;26.05;;;1.80;77.10;;;;;;4963514;28;20035;-66
2022/02/24 06:29:44;;;;;;;69.07;23.45;;;1.80;77.00;;;;;;4964774;28;20042;-67
2022/02/24 06:32:10;;;;;;;56.78;23.10;;;1.80;77.00;;;;;;4962356;28;21349;-67
2022/02/24 06:34:36;;;;;;;62.60;23.13;;;1.80;77.20;;;;;;4960688;28;20518;-67
2022/02/24 06:37:02;;;;;;;52.83;20.88;;;1.80;77.30;;;;;;4960071;28;20406;-66
2022/02/24 06:39:27;;;;;;;47.55;20.77;;;1.80;77.40;;;;;;4964267;28;20039;-67
2022/02/24 06:41:53;;;;;;;42.75;18.40;;;1.80;77.40;;;;;;4960098;28;20034;-66
2022/02/24 06:44:18;;;;;;;38.45;17.90;;;1.80;77.40;;;;;;4962310;28;20042;-68
2022/02/24 06:46:44;;;;;;;34.88;16.35;;;1.80;77.50;;;;;;4958732;28;20502;-68
2022/02/24 06:49:10;;;;;;;27.58;13.80;;;1.80;77.50;;;;;;4963572;28;20039;-67
2022/02/24 06:51:36;;;;;;;28.23;14.68;;;1.80;77.40;;;;;;4962180;28;20042;-66
2022/02/24 06:54:02;;;;;;;26.05;12.30;;;1.80;77.40;;;;;;4959762;28;20125;-67
2022/02/24 06:56:27;;;;;;;24.13;14.00;;;1.90;77.50;;;;;;4958276;28;20062;-66
2022/02/24 06:58:53;;;;;;;26.52;14.70;;;1.90;77.60;;;;;;4960579;28;20434;-67
2022/02/24 07:01:19;;;;;;;28.60;13.63;;;1.90;77.80;;;;;;4963576;28;20035;-67
2022/02/24 07:03:45;;;;;;;25.90;13.38;;;2.00;77.80;;;;;;4963970;28;20588;-66
2022/02/24 07:06:11;;;;;;;29.73;12.63;;;1.90;77.80;;;;;;4964200;28;20057;-67
2022/02/24 07:08:37;;;;;;;20.42;11.48;;;2.00;77.90;;;;;;4961190;28;20044;-67
2022/02/24 07:11:03;;;;;;;23.15;10.40;;;2.00;78.00;;;;;;4959438;28;20093;-66
2022/02/24 07:13:29;;;;;;;20.30;10.60;;;2.00;78.20;;;;;;4962262;28;20050;-67
2022/02/24 07:15:55;;;;;;;20.65;10.52;;;2.00;78.20;;;;;;4960636;28;20061;-67
2022/02/24 07:18:21;;;;;;;22.50;10.75;;;2.10;78.40;;;;;;4961974;28;20137;-67
2022/02/24 07:20:46;;;;;;;22.23;10.63;;;2.10;78.50;;;;;;4962713;28;20039;-67
2022/02/24 07:23:13;;;;;;;20.55;10.75;;;2.20;78.70;;;;;;4959659;28;20073;-67
2022/02/24 07:25:39;;;;;;;29.35;12.10;;;2.20;78.60;;;;;;4962693;28;20062;-66
2022/02/24 07:28:05;;;;;;;28.70;11.82;;;2.30;78.80;;;;;;4964383;28;20042;-66
2022/02/24 07:30:31;;;;;;;28.90;11.02;;;2.30;78.80;;;;;;4965893;28;20029;-67
2022/02/24 07:32:56;;;;;;;37.05;12.82;;;2.40;79.00;;;;;;4966435;28;20502;-67
2022/02/24 07:35:22;;;;;;;25.80;11.93;;;2.40;79.00;;;;;;4966784;28;20034;-67
2022/02/24 07:37:48;;;;;;;21.20;11.10;;;2.50;79.20;;;;;;4965484;28;20461;-67
2022/02/24 07:40:13;;;;;;;31.50;12.50;;;2.50;79.30;;;;;;4966038;28;20178;-67
2022/02/24 07:42:39;;;;;;;29.63;12.43;;;2.50;79.40;;;;;;4965631;28;20035;-67
2022/02/24 07:45:07;;;;;;;21.67;12.60;;;2.60;79.50;;;;;;4966190;28;20101;-67
2022/02/24 07:47:33;;;;;;;25.25;12.25;;;2.60;79.50;;;;;;4966235;28;20035;-67
2022/02/24 07:49:59;;;;;;;25.70;12.20;;;2.70;79.70;;;;;;4965904;28;20046;-66
2022/02/24 07:52:25;;;;;;;35.88;13.35;;;2.80;79.80;;;;;;4965971;28;20066;-67
2022/02/24 07:54:51;;;;;;;23.33;12.43;;;2.80;79.90;;;;;;4964605;28;20362;-68
2022/02/24 07:57:16;;;;;;;17.77;11.10;;;2.90;80.00;;;;;;4965037;28;20186;-67
2022/02/24 07:59:42;;;;;;;25.90;11.52;;;2.90;80.00;;;;;;4966044;28;20027;-67
2022/02/24 08:02:08;;;;;;;22.98;12.15;;;3.00;80.20;;;;;;4965632;28;20039;-67
2022/02/24 08:04:33;;;;;;;15.93;10.15;;;3.10;80.30;;;;;;4965368;28;20038;-67
2022/02/24 08:06:59;;;;;;;21.73;10.60;;;3.10;80.30;;;;;;4965849;28;20053;-68
2022/02/24 08:09:25;;;;;;;19.25;10.50;;;3.20;80.40;;;;;;4970223;28;20537;-67
2022/02/24 08:14:36;;;;;;;27.60;11.43;;;3.30;80.60;;;;;;4968182;28;20073;-63
2022/02/24 08:17:03;;;;;;;16.08;10.73;;;3.40;80.60;;;;;;4969160;28;20089;-67
2022/02/24 08:19:28;;;;;;;16.65;10.38;;;3.50;80.60;;;;;;4969797;28;20043;-67
2022/02/24 08:21:54;;;;;;;18.10;9.70;;;3.60;80.70;;;;;;4969456;28;20584;-67
2022/02/24 08:24:20;;;;;;;14.68;9.13;;;3.70;80.80;;;;;;4969534;28;20625;-67
2022/02/24 08:26:45;;;;;;;12.13;8.40;;;3.70;81.00;;;;;;4967097;28;20046;-67
2022/02/24 08:29:11;;;;;;;12.25;8.60;;;3.90;81.20;;;;;;4966429;28;20047;-68
2022/02/24 08:31:37;;;;;;;15.98;9.80;;;3.90;81.40;;;;;;4966492;28;20134;-66
2022/02/24 08:34:02;;;;;;;16.95;10.00;;;4.00;81.40;;;;;;4961980;28;20255;-67
2022/02/24 08:36:30;;;;;;;17.42;10.45;;;4.10;82.40;;;;;;4961950;28;20031;-67
2022/02/24 08:38:56;;;;;;;18.13;11.25;;;4.20;81.60;;;;;;4962643;28;20113;-67
2022/02/24 08:41:22;;;;;;;13.05;9.88;;;4.30;81.70;;;;;;4964573;28;20031;-67
2022/02/24 08:43:48;;;;;;;16.05;10.52;;;4.30;81.80;;;;;;4961851;28;20042;-67
2022/02/24 08:46:14;;;;;;;18.10;10.45;;;4.40;82.00;;;;;;4963709;28;20506;-67
2022/02/24 08:48:41;;;;;;;16.10;10.45;;;4.50;82.00;;;;;;4963040;28;20130;-67
2022/02/24 08:51:06;;;;;;;19.60;10.93;;;4.60;82.00;;;;;;4966625;28;20457;-67
2022/02/24 08:53:32;;;;;;;14.82;9.80;;;4.70;82.00;;;;;;4962146;28;20121;-67
2022/02/24 08:55:58;;;;;;;16.98;10.40;;;4.70;82.00;;;;;;4964156;28;20634;-67
2022/02/24 08:58:23;;;;;;;15.95;10.40;;;4.80;82.10;;;;;;4964260;28;20473;-69
2022/02/24 09:00:50;;;;;;;20.58;11.52;;;5.00;82.30;;;;;;4966538;28;20557;-67
2022/02/24 09:03:17;;;;;;;19.65;11.32;;;5.10;82.40;;;;;;4961924;28;20041;-67
2022/02/24 09:05:46;;;;;;;16.60;9.60;;;5.20;82.60;;;;;;4968047;28;20372;-65
2022/02/24 09:08:13;;;;;;;17.45;10.88;;;5.30;82.60;;;;;;4968445;28;20050;-67
2022/02/24 09:10:39;;;;;;;15.07;9.90;;;5.40;82.50;;;;;;4965143;28;20114;-67
2022/02/24 09:13:05;;;;;;;21.05;11.20;;;5.50;82.70;;;;;;4969653;28;20122;-67
2022/02/24 09:15:32;;;;;;;13.18;8.88;;;5.60;82.90;;;;;;4969131;28;20031;-67
2022/02/24 09:17:58;;;;;;;12.95;8.48;;;5.70;82.80;;;;;;4968395;28;20035;-68
2022/02/24 09:20:24;;;;;;;12.02;8.20;;;5.80;82.80;;;;;;4967295;28;20058;-68
2022/02/24 09:22:50;;;;;;;12.40;8.15;;;5.90;82.80;;;;;;4965254;28;20170;-67
2022/02/24 09:25:15;;;;;;;10.85;8.55;;;6.00;82.90;;;;;;4963898;28;20073;-68
2022/02/24 09:27:41;;;;;;;10.80;6.72;;;6.20;83.00;;;;;;4962005;28;20118;-68
2022/02/24 09:30:07;;;;;;;11.45;6.93;;;6.30;83.20;;;;;;4965561;28;20058;-68
2022/02/24 09:32:34;;;;;;;6.93;5.50;;;6.50;83.50;;;;;;4961997;28;20034;-68
2022/02/24 09:35:00;;;;;;;7.40;5.40;;;6.70;83.70;;;;;;4964559;28;20525;-68
2022/02/24 09:37:27;;;;;;;7.53;4.63;;;6.90;83.80;;;;;;4963116;28;20121;-68
2022/02/24 09:39:53;;;;;;;7.13;5.40;;;7.10;83.40;;;;;;4962316;28;20126;-68
2022/02/24 09:42:19;;;;;;;8.52;5.30;;;7.30;83.10;;;;;;4965319;28;20447;-67
2022/02/24 09:44:45;;;;;;;7.80;5.65;;;7.50;82.60;;;;;;4959815;28;20066;-68
2022/02/24 09:47:11;;;;;;;8.85;5.10;;;7.80;82.20;;;;;;4966155;28;20601;-68
2022/02/24 09:49:39;;;;;;;7.28;5.30;;;8.00;81.60;;;;;;4963355;28;20470;-67
2022/02/24 09:52:05;;;;;;;8.75;4.75;;;8.30;81.00;;;;;;4963966;28;20038;-68
2022/02/24 09:54:31;;;;;;;7.40;4.90;;;8.40;81.30;;;;;;4963778;28;20565;-68
2022/02/24 09:56:57;;;;;;;7.18;4.75;;;8.60;80.00;;;;;;4962232;28;20282;-68
2022/02/24 09:59:24;;;;;;;6.60;4.78;;;8.80;79.60;;;;;;4964026;28;20086;-68
2022/02/24 10:01:50;;;;;;;6.60;4.57;;;8.90;79.10;;;;;;4965677;28;20478;-67
2022/02/24 10:04:16;;;;;;;5.60;4.15;;;9.10;78.70;;;;;;4964072;28;20058;-68
2022/02/24 10:06:43;;;;;;;4.75;4.03;;;9.20;78.20;;;;;;4965277;28;20113;-68
2022/02/24 10:09:11;;;;;;;4.40;3.90;;;9.40;77.60;;;;;;4962533;28;20066;-68
2022/02/24 10:11:41;;;;;;;11.95;7.50;;;9.50;77.10;;;;;;4962108;28;20038;-67
2022/02/24 10:14:09;;;;;;;11.60;7.47;;;9.70;76.60;;;;;;4965870;28;20102;-68
2022/02/24 10:16:56;;;;;;;9.65;6.05;;;9.80;76.10;;;;;;4962289;28;20039;-67
2022/02/24 10:19:29;;;;;;;6.13;5.25;;;9.90;75.20;;;;;;4963350;28;20298;-68
2022/02/24 10:22:08;;;;;;;6.65;4.10;;;10.00;75.10;;;;;;4963099;28;20042;-67
2022/02/24 10:24:33;;;;;;;7.28;3.83;;;10.20;74.40;;;;;;4963302;28;20134;-67
2022/02/24 10:27:16;;;;;;;6.22;3.90;;;10.20;74.90;;;;;;4962554;28;20565;-68
2022/02/24 10:30:16;;;;;;;5.72;4.00;;;10.40;74.10;;;;;;4962672;28;20038;-68
2022/02/24 10:32:47;;;;;;;7.03;3.65;;;10.50;74.00;;;;;;4966358;28;20117;-68
2022/02/24 10:35:28;;;;;;;5.43;3.88;;;10.60;74.30;;;;;;4965912;28;20510;-68
2022/02/24 10:37:58;;;;;;;7.40;4.18;;;10.70;73.10;;;;;;4965580;28;20046;-68
2022/02/24 10:40:26;;;;;;;10.73;6.38;;;10.80;73.50;;;;;;4967545;28;20030;-68
2022/02/24 10:42:52;;;;;;;5.18;3.88;;;10.90;73.30;;;;;;4967214;28;20041;-67
2022/02/24 10:45:18;;;;;;;4.75;3.50;;;11.00;73.20;;;;;;4965891;28;20038;-68
2022/02/24 10:48:06;;;;;;;6.22;5.13;;;11.20;73.00;;;;;;4966410;28;20078;-68
2022/02/24 10:50:50;;;;;;;4.43;3.65;;;11.30;71.60;;;;;;4967444;28;20035;-68
2022/02/24 10:53:19;;;;;;;5.68;3.08;;;11.40;71.00;;;;;;4966695;28;20447;-68
2022/02/24 10:55:54;;;;;;;4.60;3.25;;;11.50;71.60;;;;;;4958569;28;20031;-67
2022/02/24 10:58:21;;;;;;;4.68;3.92;;;11.60;70.70;;;;;;4958347;28;20090;-68
2022/02/24 11:00:46;;;;;;;3.13;2.83;;;11.70;70.90;;;;;;4966709;28;20050;-69
2022/02/24 11:03:12;;;;;;;10.27;6.30;;;11.80;70.70;;;;;;4966702;28;20038;-68
2022/02/24 11:05:40;;;;;;;12.57;6.70;;;11.90;70.40;;;;;;4967344;28;20041;-68
2022/02/24 11:08:08;;;;;;;5.72;4.55;;;12.00;68.60;;;;;;4966787;28;20039;-68
2022/02/24 11:10:36;;;;;;;12.52;6.30;;;12.10;69.20;;;;;;4964679;28;20514;-68
2022/02/24 11:13:03;;;;;;;10.90;5.28;;;12.20;69.30;;;;;;4967343;28;20038;-68
2022/02/24 11:15:28;;;;;;;5.00;2.83;;;12.30;69.20;;;;;;4966965;28;20502;-69
2022/02/24 11:17:55;;;;;;;6.70;3.28;;;12.40;67.40;;;;;;4966834;28;20441;-69
2022/02/24 11:20:21;;;;;;;17.92;8.98;;;12.50;63.60;;;;;;4967648;28;20031;-67
2022/02/24 11:22:48;;;;;;;12.00;6.22;;;12.60;64.50;;;;;;4964427;28;20282;-68
2022/02/24 11:25:16;;;;;;;17.85;8.68;;;12.70;63.80;;;;;;4965896;28;20039;-68
2022/02/24 11:27:52;;;;;;;20.65;9.25;;;12.80;63.40;;;;;;4966800;28;20065;-68
2022/02/24 11:30:26;;;;;;;4.15;2.65;;;12.90;60.10;;;;;;4964634;28;20038;-69
2022/02/24 11:32:52;;;;;;;16.13;8.70;;;13.00;59.50;;;;;;4964207;28;20053;-68
2022/02/24 11:35:20;;;;;;;3.92;2.30;;;13.00;58.70;;;;;;4966801;28;20116;-68
2022/02/24 11:37:49;;;;;;;9.13;5.35;;;13.10;58.40;;;;;;4964812;28;20363;-68
2022/02/24 11:40:18;;;;;;;9.55;5.90;;;13.10;59.60;;;;;;4966719;28;20046;-68
2022/02/24 11:42:59;;;;;;;8.48;4.90;;;13.10;59.00;;;;;;4966606;28;22828;-68
2022/02/24 11:45:25;;;;;;;16.05;9.65;;;13.20;59.20;;;;;;4968819;28;20041;-69
2022/02/24 11:48:13;;;;;;;4.82;2.22;;;13.20;59.90;;;;;;4969935;28;20031;-68
2022/02/24 11:50:39;;;;;;;3.92;1.92;;;13.20;58.10;;;;;;4969005;28;20034;-68
2022/02/24 11:53:07;;;;;;;2.50;1.40;;;13.30;58.50;;;;;;4969371;28;20540;-68
2022/02/24 11:55:45;;;;;;;3.47;1.30;;;13.30;58.00;;;;;;4970550;28;20078;-69
2022/02/24 11:58:44;;;;;;;5.85;1.40;;;13.30;57.30;;;;;;4969807;28;20077;-68
2022/02/24 12:01:13;;;;;;;3.10;1.40;;;13.30;56.70;;;;;;4969409;28;20043;-68
2022/02/24 12:03:45;;;;;;;2.80;1.17;;;13.40;58.60;;;;;;4970163;28;20034;-68
2022/02/24 12:06:11;;;;;;;4.65;1.20;;;13.40;57.10;;;;;;4962617;28;20577;-68
2022/02/24 12:09:22;;;;;;;2.40;1.13;;;13.40;57.20;;;;;;4968151;28;20041;-69
2022/02/24 12:11:50;;;;;;;3.95;1.27;;;13.50;56.20;;;;;;4948929;28;20035;-68
2022/02/24 12:14:18;;;;;;;2.80;1.30;;;13.50;57.00;;;;;;4970220;28;20375;-68
2022/02/24 12:17:04;;;;;;;2.55;1.75;;;13.50;55.90;;;;;;4969376;28;20046;-68
2022/02/24 12:19:47;;;;;;;2.83;1.63;;;13.40;54.70;;;;;;4969792;28;20588;-68
2022/02/24 12:22:19;;;;;;;1.88;1.20;;;13.50;54.60;;;;;;4969962;28;20035;-67
2022/02/24 12:24:48;;;;;;;3.83;1.25;;;13.50;55.20;;;;;;4969553;28;20494;-68
2022/02/24 12:27:38;;;;;;;2.88;1.38;;;13.50;55.50;;;;;;4970563;28;20041;-69
2022/02/24 12:30:10;;;;;;;4.20;1.55;;;13.60;55.50;;;;;;4969354;28;20521;-68
2022/02/24 12:32:49;;;;;;;3.85;1.80;;;13.50;56.80;;;;;;4968017;28;20031;-66
2022/02/24 12:35:19;;;;;;;2.95;1.23;;;13.60;55.80;;;;;;4969809;28;20118;-66
2022/02/24 12:37:46;;;;;;;4.50;1.25;;;13.60;54.00;;;;;;4969351;28;20073;-68
2022/02/24 12:40:31;;;;;;;3.55;1.23;;;13.60;55.20;;;;;;4961244;28;20038;-68
2022/02/24 12:43:00;;;;;;;2.30;1.17;;;13.70;55.00;;;;;;4967714;28;20038;-68
2022/02/24 12:45:27;;;;;;;3.40;1.48;;;13.70;55.00;;;;;;4968031;28;20110;-69
2022/02/24 12:47:56;;;;;;;3.13;0.90;;;13.70;54.70;;;;;;4968897;28;20031;-69
2022/02/24 12:50:36;;;;;;;4.20;1.20;;;13.70;55.30;;;;;;4970259;28;20027;-68
2022/02/24 12:53:13;;;;;;;4.05;0.95;;;13.80;54.10;;;;;;4969275;28;20047;-68